»·PEaware :: N819BC KPDX-KOTH

N819BC :: KPDX-KOTH

FLIGHT INFORMATION

Flight Status: Arrived
Operator: Privately registered:
United States
More flights under this callsign
Pilot: Bob C. (7429)
Aircraft: PIPER PA-24 COMMANCHE
(PA24)
More flights by this aircraft type
Origin: KPDX Portland Intl
United States
Destination: KOTH North Bend Mun
United States
More flights between these airports :: More routes between these airports
Route: +UBG V287 OTH
File this flight plan on PilotEdge
Remarks: Newbie Would like to do Rwy 4 ILS approach from OTG which I botched up yesterday.
Altitude:
(Current/Filed)
8,000ft
Speed:
(Current/Filed)
140kts
Departed: 06-Nov-17 08:16 AM
Arrived: 06-Nov-17 09:40 AM
Distance/Time
Traveled:
148nm/1:24
Distance/Time
To Go:
Arrived

Flight Plot

Page will automatically refresh every two minutes.

Flight plan parsing failed; only flown route is shown


Map Options




Map Legend


Flown Route
Filed Route
Departure Airport
Arrival Airport
Navaid (VOR, NDB)
Fix

Horizontal Profiles

Position Reports

Time Latitude Longitude Heading Altitude Ground
Speed
06-Nov-17 08:08 45.587520 -122.584242 134 21ft 0kts
06-Nov-17 08:09 45.587520 -122.584241 134 21ft 0kts
06-Nov-17 08:10 45.587519 -122.584240 134 21ft 0kts
06-Nov-17 08:11 45.587518 -122.584238 134 21ft 0kts
06-Nov-17 08:12 45.587517 -122.584237 134 21ft 0kts
06-Nov-17 08:13 45.587516 -122.584235 134 21ft 0kts
06-Nov-17 08:14 45.587514 -122.584233 134 21ft 0kts
06-Nov-17 08:15 45.587318 -122.583495 99 21ft 14kts
06-Nov-17 08:16 45.586618 -122.577897 109 21ft 11kts
06-Nov-17 08:17 45.583675 -122.570239 118 21ft 25kts
06-Nov-17 08:18 45.583545 -122.569144 39 21ft 0kts
06-Nov-17 08:19 45.583547 -122.569142 39 21ft 0kts
06-Nov-17 08:20 45.584120 -122.568823 347 21ft 10kts
06-Nov-17 08:21 45.591475 -122.585744 299 529ft 82kts
06-Nov-17 08:22 45.602782 -122.614576 296 1655ft 84kts
06-Nov-17 08:23 45.613977 -122.645208 297 2668ft 89kts
06-Nov-17 08:24 45.623227 -122.678652 256 3572ft 91kts
06-Nov-17 08:25 45.606813 -122.710251 229 4400ft 101kts
06-Nov-17 08:26 45.587535 -122.743226 230 5111ft 109kts
06-Nov-17 08:27 45.566953 -122.777034 229 5838ft 117kts
06-Nov-17 08:28 45.544911 -122.810868 217 6744ft 118kts
06-Nov-17 08:29 45.520659 -122.842570 229 7527ft 119kts
06-Nov-17 08:30 45.493314 -122.872463 213 7948ft 140kts
06-Nov-17 08:31 45.460990 -122.900315 210 7957ft 141kts
06-Nov-17 08:32 45.422344 -122.910093 175 7948ft 144kts
06-Nov-17 08:33 45.382678 -122.901903 188 7942ft 143kts
06-Nov-17 08:34 45.351145 -122.916923 206 7950ft 141kts
06-Nov-17 08:35 45.316163 -122.941914 208 7947ft 140kts
06-Nov-17 08:36 45.281337 -122.967313 208 7946ft 140kts
06-Nov-17 08:37 45.246017 -122.990983 207 7945ft 140kts
06-Nov-17 08:38 45.211399 -123.015425 208 7943ft 140kts
06-Nov-17 08:39 45.176003 -123.040037 207 7941ft 140kts
06-Nov-17 08:40 45.140731 -123.063933 208 7942ft 140kts
06-Nov-17 08:41 45.105844 -123.088885 208 7940ft 140kts
06-Nov-17 08:42 45.070447 -123.112876 207 7938ft 140kts
06-Nov-17 08:43 45.035319 -123.137417 208 7937ft 141kts
06-Nov-17 08:44 44.999735 -123.161759 207 7931ft 141kts
06-Nov-17 08:45 44.964457 -123.186058 208 7929ft 141kts
06-Nov-17 08:46 44.929296 -123.210626 207 7929ft 141kts
06-Nov-17 08:47 44.894624 -123.233912 208 7928ft 141kts
06-Nov-17 08:48 44.859465 -123.258578 208 7928ft 141kts
06-Nov-17 08:49 44.824051 -123.282388 207 7930ft 141kts
06-Nov-17 08:50 44.788698 -123.306890 208 7933ft 141kts
06-Nov-17 08:51 44.759232 -123.326980 207 7935ft 141kts
06-Nov-17 08:52 44.717937 -123.355032 208 7937ft 141kts
06-Nov-17 08:53 44.682494 -123.379364 207 7938ft 141kts
06-Nov-17 08:54 44.652889 -123.399258 207 7941ft 141kts
06-Nov-17 08:55 44.617423 -123.423652 207 7941ft 141kts
06-Nov-17 08:56 44.575932 -123.451482 207 7943ft 141kts
06-Nov-17 08:57 44.546458 -123.471583 208 7941ft 141kts
06-Nov-17 08:58 44.510963 -123.495758 208 7942ft 141kts
06-Nov-17 08:59 44.475447 -123.519659 208 7945ft 142kts
06-Nov-17 09:00 44.439959 -123.543754 208 7946ft 142kts
06-Nov-17 09:01 44.404226 -123.567543 207 7946ft 142kts
06-Nov-17 09:02 44.368767 -123.591609 208 7948ft 142kts
06-Nov-17 09:03 44.333257 -123.615609 207 7948ft 142kts
06-Nov-17 09:04 44.297090 -123.638160 205 7949ft 142kts
06-Nov-17 09:05 44.260759 -123.659789 205 7950ft 142kts
06-Nov-17 09:06 44.224434 -123.681679 206 7950ft 141kts
06-Nov-17 09:07 44.188473 -123.703857 207 7950ft 141kts
06-Nov-17 09:08 44.152502 -123.725891 206 7949ft 141kts
06-Nov-17 09:09 44.116387 -123.747775 206 7952ft 141kts
06-Nov-17 09:10 44.080342 -123.769622 206 7954ft 142kts
06-Nov-17 09:11 44.044165 -123.791830 206 7954ft 142kts
06-Nov-17 09:12 44.007670 -123.813603 206 7953ft 142kts
06-Nov-17 09:13 43.971287 -123.835489 207 7953ft 142kts
06-Nov-17 09:14 43.935164 -123.857883 206 7954ft 142kts
06-Nov-17 09:15 43.898628 -123.879532 206 7954ft 142kts
06-Nov-17 09:16 43.862357 -123.901534 206 7954ft 142kts
06-Nov-17 09:17 43.824927 -123.924193 206 7309ft 152kts
06-Nov-17 09:18 43.786304 -123.947324 205 6191ft 150kts
06-Nov-17 09:19 43.750383 -123.968777 205 6064ft 136kts
06-Nov-17 09:20 43.715633 -123.989661 206 6060ft 135kts
06-Nov-17 09:21 43.681048 -124.010446 205 6058ft 135kts
06-Nov-17 09:22 43.646365 -124.031057 206 6058ft 136kts
06-Nov-17 09:23 43.611617 -124.051921 206 6060ft 135kts
06-Nov-17 09:24 43.575715 -124.073557 208 5674ft 139kts
06-Nov-17 09:25 43.545364 -124.106796 217 5348ft 130kts
06-Nov-17 09:26 43.510570 -124.124610 194 5049ft 139kts
06-Nov-17 09:27 43.473856 -124.140402 203 4729ft 136kts
06-Nov-17 09:28 43.446878 -124.171882 237 4468ft 123kts
06-Nov-17 09:29 43.429687 -124.213976 251 4165ft 127kts
06-Nov-17 09:30 43.422234 -124.261549 257 3942ft 127kts
06-Nov-17 09:31 43.415111 -124.308243 256 3759ft 126kts
06-Nov-17 09:32 43.405309 -124.354133 239 3530ft 127kts
06-Nov-17 09:33 43.388010 -124.396071 240 3470ft 127kts
06-Nov-17 09:34 43.369943 -124.440885 240 2087ft 134kts
06-Nov-17 09:35 43.342864 -124.464508 201 2129ft 115kts
06-Nov-17 09:36 43.337158 -124.498990 336 2164ft 118kts
06-Nov-17 09:37 43.366889 -124.489036 47 2154ft 110kts
06-Nov-17 09:38 43.376650 -124.449311 80 2175ft 110kts
06-Nov-17 09:39 43.382203 -124.409319 82 2169ft 102kts
06-Nov-17 09:40 43.383992 -124.371023 98 1621ft 86kts
06-Nov-17 09:41 43.387547 -124.339970 87 1252ft 83kts
06-Nov-17 09:42 43.394673 -124.310711 67 805ft 73kts
06-Nov-17 09:43 43.405006 -124.285059 67 390ft 78kts
06-Nov-17 09:44 43.415153 -124.259742 55 27ft 72kts
06-Nov-17 09:45 43.417695 -124.251703 136 11ft 0kts
06-Nov-17 09:46 43.418483 -124.248687 66 11ft 23kts
06-Nov-17 09:47 43.415971 -124.246101 171 11ft 2kts
06-Nov-17 09:48 43.415960 -124.246099 172 11ft 0kts

Navigation Log

Ident Type
Flight plan parsing failed, navigation log unavailable